Terminal Aerodrome Forecast
Issued by NWS Paducah, KY

Home | Current Version | Previous Version | Text Only | Print | Product List | Glossary On
Versions: 1 2 3 4 5 6 7 8 9 10 11 12 13 14 15 16 17
000
FTUS43 KPAH 012214 AAA
TAFEVV
TAF AMD
KEVV 012214Z 0122/0218 VRB05KT 5SM HZ BKN100
     FM020000 18003KT 5SM -SHRA BR VCTS SCT012CB BKN045
     FM021200 17004KT 4SM BR SCT010 BKN020 PROB30 0212/0218 3SM
      -SHRA BR=

USA.gov is the U.S. government's official web portal to all federal, state and local government web resources and services.